Time;durP1;ratioP1;P1;durP2;ratioP2;P2;SDS_P1;SDS_P2;PMS_P1;PMS_P2;Temp;Humidity;BMP_temperature;BMP_pressure;BME280_temperature;BME280_humidity;BME280_pressure;Samples;Min_cycle;Max_cycle;Signal;HPM_P1;HPM_P2
2022/10/29 00:01:13;693785.00;2.31;1196.46;84262.00;0.28;146.40;;;;;17.20;8.90;;;;;;2280309;61;1132;-87
2022/10/29 00:03:40;365259.00;1.22;630.09;13077.00;0.04;23.28;;;;;17.10;9.00;;;;;;2280326;61;1597;-88
2022/10/29 00:06:10;311693.00;1.04;538.02;0.00;0.00;0.62;;;;;17.10;8.80;;;;;;2280307;61;1322;-87
2022/10/29 00:08:39;312836.00;1.04;539.98;0.00;0.00;0.62;;;;;17.00;9.00;;;;;;2280270;61;1525;-87
2022/10/29 00:11:11;443322.00;1.48;764.30;0.00;0.00;0.62;;;;;16.90;9.20;;;;;;2280284;61;1919;-87
2022/10/29 00:13:38;407160.00;1.36;702.11;0.00;0.00;0.62;;;;;17.00;8.30;;;;;;2280314;61;997;-87
2022/10/29 00:16:08;514858.00;1.72;887.41;29088.00;0.10;51.00;;;;;17.00;8.70;;;;;;2280253;61;1410;-89
2022/10/29 00:18:35;372082.00;1.24;641.82;0.00;0.00;0.62;;;;;16.80;8.70;;;;;;2280359;61;1497;-88
2022/10/29 00:21:04;1002560.00;3.34;1737.01;174731.00;0.58;302.42;;;;;16.70;9.20;;;;;;2280253;61;1482;-87
2022/10/29 00:23:32;405335.00;1.35;698.98;0.00;0.00;0.62;;;;;16.60;9.30;;;;;;2280222;61;1637;-88
2022/10/29 00:25:59;544162.00;1.81;937.90;59377.00;0.20;103.40;;;;;16.70;10.00;;;;;;2280075;61;1455;-87
2022/10/29 00:28:29;325161.00;1.08;561.17;12155.00;0.04;21.68;;;;;16.70;9.40;;;;;;2280351;61;1049;-90
2022/10/29 00:30:56;471603.00;1.57;812.95;14070.00;0.05;25.00;;;;;16.90;8.70;;;;;;2280249;61;1926;-87
2022/10/29 00:33:24;540307.00;1.80;931.25;32224.00;0.11;56.43;;;;;16.80;8.60;;;;;;2280259;61;978;-88
2022/10/29 00:35:58;584625.00;1.95;1007.68;47877.00;0.16;83.51;;;;;16.70;8.90;;;;;;2280195;61;1558;-89
2022/10/29 00:38:34;463098.00;1.54;798.31;37254.00;0.12;65.14;;;;;16.60;9.40;;;;;;2280182;61;1592;-87
2022/10/29 00:41:02;477802.00;1.59;823.61;72560.00;0.24;126.18;;;;;16.50;10.00;;;;;;2280264;61;1497;-87
2022/10/29 00:43:37;690405.00;2.30;1190.60;72731.00;0.24;126.48;;;;;16.50;9.70;;;;;;2280202;61;1646;-89
2022/10/29 00:46:16;646531.00;2.16;1114.64;96835.00;0.32;168.11;;;;;16.60;9.50;;;;;;2280207;61;1481;-87
2022/10/29 00:48:52;675485.00;2.25;1164.75;63412.00;0.21;110.37;;;;;16.60;9.60;;;;;;2280183;61;1406;-88
2022/10/29 00:51:20;445375.00;1.48;767.83;7758.00;0.03;14.06;;;;;16.50;9.50;;;;;;2280228;61;1906;-89
2022/10/29 00:53:57;369868.00;1.23;638.01;101738.00;0.34;176.57;;;;;16.50;9.70;;;;;;2280020;61;1609;-88
2022/10/29 00:56:27;525126.00;1.75;905.09;105183.00;0.35;182.52;;;;;16.60;9.30;;;;;;2280102;61;1598;-89
2022/10/29 00:58:56;848511.00;2.83;1465.86;200609.00;0.67;346.97;;;;;16.70;8.70;;;;;;2280193;61;943;-89
2022/10/29 01:01:30;871605.00;2.91;1506.30;98361.00;0.33;170.74;;;;;16.60;8.80;;;;;;2280059;61;2087;-88
2022/10/29 01:06:30;1865873.00;6.22;3352.46;75683.00;0.25;131.58;;;;;16.40;9.20;;;;;;2277602;61;1345;-88
2022/10/29 01:08:59;682745.00;2.28;1177.33;168536.00;0.56;291.74;;;;;16.50;9.40;;;;;;2276079;61;1440;-88
2022/10/29 01:11:48;628024.00;2.09;1082.63;78230.00;0.26;135.98;;;;;16.60;9.20;;;;;;2276003;61;1992;-87
2022/10/29 01:14:35;648298.00;2.16;1117.69;13052.00;0.04;23.24;;;;;16.60;9.50;;;;;;2276842;61;1417;-86
2022/10/29 01:17:15;669633.00;2.23;1154.62;0.00;0.00;0.62;;;;;16.70;9.10;;;;;;2276741;61;1690;-86
2022/10/29 01:20:25;297058.00;0.99;512.86;81076.00;0.27;140.90;;;;;16.60;9.20;;;;;;2276844;61;1183;-87
2022/10/29 01:23:13;463220.00;1.54;798.52;47482.00;0.16;82.83;;;;;16.70;9.00;;;;;;2273808;61;1547;-89
2022/10/29 01:26:14;428412.00;1.43;738.65;95598.00;0.32;165.97;;;;;16.80;8.90;;;;;;2276535;61;1555;-89
2022/10/29 01:28:58;554344.00;1.85;955.45;36572.00;0.12;63.96;;;;;16.80;9.40;;;;;;2276646;61;1529;-88
2022/10/29 01:34:09;1444713.00;4.82;2539.51;55193.00;0.18;96.17;;;;;16.70;8.70;;;;;;2278671;61;1407;-88
2022/10/29 01:36:52;334314.00;1.11;576.90;0.00;0.00;0.62;;;;;16.70;8.40;;;;;;2276712;61;1383;-89
2022/10/29 01:39:27;348385.00;1.16;601.09;33838.00;0.11;59.23;;;;;16.80;8.20;;;;;;2300070;55;3740;-88
2022/10/29 01:42:04;580922.00;1.94;1001.29;50417.00;0.17;87.91;;;;;16.90;7.90;;;;;;2284828;60;1506;-89
2022/10/29 01:44:47;266676.00;0.89;460.63;26406.00;0.09;46.36;;;;;17.00;8.00;;;;;;2284918;60;930;-87
2022/10/29 01:47:18;311996.00;1.04;538.54;4420.00;0.01;8.28;;;;;17.20;7.70;;;;;;2284900;60;1556;-88
2022/10/29 01:49:54;369070.00;1.23;636.64;0.00;0.00;0.62;;;;;17.30;7.40;;;;;;2284817;60;1620;-86
2022/10/29 01:52:31;265729.00;0.89;459.00;0.00;0.00;0.62;;;;;17.30;7.00;;;;;;2296764;55;3762;-88
2022/10/29 01:54:59;472803.00;1.58;815.01;0.00;0.00;0.62;;;;;17.30;6.40;;;;;;2284765;60;2255;-87
2022/10/29 01:57:33;747286.00;2.49;1289.34;96911.00;0.32;168.24;;;;;17.30;6.40;;;;;;2280714;61;1007;-88
2022/10/29 02:00:04;247660.00;0.83;427.93;0.00;0.00;0.62;;;;;17.30;6.90;;;;;;2280715;61;1628;-88
2022/10/29 02:02:46;168123.00;0.56;291.03;0.00;0.00;0.62;;;;;17.40;7.00;;;;;;2280701;61;1735;-89
2022/10/29 02:05:28;272186.00;0.91;470.10;3911.00;0.01;7.40;;;;;17.40;7.00;;;;;;2280735;61;1430;-87
2022/10/29 02:08:05;797809.00;2.66;1377.30;69372.00;0.23;120.68;;;;;17.30;7.20;;;;;;2280671;61;1488;-88
2022/10/29 02:10:39;363475.00;1.21;627.02;25567.00;0.09;44.91;;;;;17.20;7.60;;;;;;2280597;61;1915;-89
2022/10/29 02:13:11;175102.00;0.58;303.05;0.00;0.00;0.62;;;;;16.90;8.10;;;;;;2280652;61;1637;-88
2022/10/29 02:15:47;307684.00;1.03;531.13;35878.00;0.12;62.76;;;;;16.70;8.20;;;;;;2280636;61;1332;-89
2022/10/29 02:18:17;317542.00;1.06;548.07;16154.00;0.05;28.61;;;;;17.00;7.70;;;;;;2280680;61;2206;-87
2022/10/29 02:20:47;716388.00;2.39;1235.67;62999.00;0.21;109.66;;;;;16.80;8.00;;;;;;2280578;61;1675;-89
2022/10/29 02:23:15;1141323.00;3.80;1984.48;153416.00;0.51;265.69;;;;;16.80;8.20;;;;;;2300268;56;3780;-89
2022/10/29 02:25:42;1404075.00;4.68;2463.88;0.00;0.00;0.62;;;;;16.80;7.90;;;;;;2286531;60;1623;-92
2022/10/29 02:28:09;509278.00;1.70;877.80;99539.00;0.33;172.78;;;;;16.80;7.80;;;;;;2284710;60;1616;-89
2022/10/29 02:30:36;541366.00;1.80;933.08;29284.00;0.10;51.34;;;;;16.80;8.40;;;;;;2284667;60;1919;-88
2022/10/29 02:33:04;517607.00;1.73;892.14;39711.00;0.13;69.39;;;;;16.60;8.50;;;;;;2316370;55;3763;-91
2022/10/29 02:35:31;389443.00;1.30;671.66;23980.00;0.08;42.16;;;;;16.80;8.40;;;;;;2284524;60;1467;-87
2022/10/29 02:37:59;178565.00;0.60;309.02;0.00;0.00;0.62;;;;;16.70;8.40;;;;;;2284709;60;1503;-87
2022/10/29 02:40:26;183580.00;0.61;317.65;0.00;0.00;0.62;;;;;16.70;8.80;;;;;;2284698;60;1097;-85
2022/10/29 02:42:55;606297.00;2.02;1045.09;80415.00;0.27;139.75;;;;;16.70;8.50;;;;;;2284726;60;927;-87
2022/10/29 02:45:22;540357.00;1.80;931.34;22614.00;0.08;39.80;;;;;16.80;8.50;;;;;;2284586;60;1703;-87
2022/10/29 02:47:50;397701.00;1.33;685.85;0.00;0.00;0.62;;;;;16.70;8.70;;;;;;2284578;60;948;-87
2022/10/29 02:50:20;318093.00;1.06;549.02;0.00;0.00;0.62;;;;;16.80;8.80;;;;;;2284706;60;1005;-86
2022/10/29 02:52:50;354470.00;1.18;611.54;0.00;0.00;0.62;;;;;16.90;8.10;;;;;;2284573;60;2004;-88
2022/10/29 02:55:18;452763.00;1.51;780.54;98108.00;0.33;170.31;;;;;17.20;7.80;;;;;;2284547;60;1606;-88
2022/10/29 02:57:45;308421.00;1.03;532.40;0.00;0.00;0.62;;;;;17.10;7.50;;;;;;2284678;60;885;-88
2022/10/29 03:00:15;281086.00;0.94;485.40;0.00;0.00;0.62;;;;;16.90;8.00;;;;;;2284627;60;1436;-87
2022/10/29 03:02:42;571475.00;1.90;984.99;59768.00;0.20;104.08;;;;;16.60;8.40;;;;;;2284539;60;1655;-89
2022/10/29 03:05:09;258625.00;0.86;446.78;0.00;0.00;0.62;;;;;16.50;9.20;;;;;;2284570;60;1410;-89
2022/10/29 03:07:37;215910.00;0.72;373.31;0.00;0.00;0.62;;;;;16.60;9.40;;;;;;2284589;60;1731;-88
2022/10/29 03:10:04;611549.00;2.04;1054.17;52523.00;0.18;91.55;;;;;16.70;8.90;;;;;;2284575;60;1602;-87
2022/10/29 03:15:05;857126.00;2.86;1480.94;0.00;0.00;0.62;;;;;16.80;9.10;;;;;;2278432;61;1423;-88
2022/10/29 03:17:32;687628.00;2.29;1185.79;165105.00;0.55;285.83;;;;;16.90;8.60;;;;;;2276397;61;988;-87
2022/10/29 03:19:59;429342.00;1.43;740.25;31835.00;0.11;55.76;;;;;16.80;8.40;;;;;;2276393;61;1696;-87
2022/10/29 03:22:26;277181.00;0.92;478.69;25017.00;0.08;43.96;;;;;16.70;8.50;;;;;;2276347;61;916;-89
2022/10/29 03:24:53;174121.00;0.58;301.36;0.00;0.00;0.62;;;;;16.70;8.90;;;;;;2276136;61;1035;-88
2022/10/29 03:27:20;467348.00;1.56;805.63;17268.00;0.06;30.54;;;;;16.70;8.80;;;;;;2276119;61;1605;-87
2022/10/29 03:29:47;247527.00;0.83;427.70;12687.00;0.04;22.60;;;;;16.70;9.30;;;;;;2276217;61;1583;-88
2022/10/29 03:32:16;602987.00;2.01;1039.38;14129.00;0.05;25.10;;;;;16.70;9.40;;;;;;2276278;61;1917;-88
2022/10/29 03:34:43;268624.00;0.90;463.98;0.00;0.00;0.62;;;;;16.70;9.30;;;;;;2276219;61;1124;-88
2022/10/29 03:37:10;507410.00;1.69;874.58;59256.00;0.20;103.19;;;;;16.70;9.40;;;;;;2276375;61;1424;-88
2022/10/29 03:39:37;284177.00;0.95;490.72;54980.00;0.18;95.80;;;;;16.60;10.00;;;;;;2276320;61;928;-87
2022/10/29 03:44:32;1170155.00;3.90;2036.35;0.00;0.00;0.62;;;;;16.60;9.30;;;;;;2282116;61;1839;-88
2022/10/29 03:47:02;529075.00;1.76;911.90;1621.00;0.01;3.43;;;;;16.60;10.50;;;;;;2280284;61;1407;-87
2022/10/29 03:49:32;243340.00;0.81;420.50;0.00;0.00;0.62;;;;;16.80;8.60;;;;;;2280310;61;1002;-89
2022/10/29 03:52:02;440650.00;1.47;759.70;0.00;0.00;0.62;;;;;16.90;8.30;;;;;;2280357;61;1918;-89
2022/10/29 03:54:29;505410.00;1.68;871.14;50810.00;0.17;88.59;;;;;16.90;9.10;;;;;;2280306;61;1549;-89
2022/10/29 03:56:56;124080.00;0.41;215.12;0.00;0.00;0.62;;;;;16.80;9.00;;;;;;2280259;61;1389;-88
2022/10/29 04:02:03;1507513.00;5.03;2657.27;23660.00;0.08;41.61;;;;;17.00;8.70;;;;;;2282353;61;1400;-88
2022/10/29 04:04:31;396158.00;1.32;683.20;0.00;0.00;0.62;;;;;16.90;8.40;;;;;;2280246;61;1507;-90
2022/10/29 04:06:59;609752.00;2.03;1051.06;72433.00;0.24;125.96;;;;;16.90;8.40;;;;;;2280250;61;1643;-87
2022/10/29 04:09:29;293240.00;0.98;506.30;19751.00;0.07;34.84;;;;;17.00;8.00;;;;;;2280221;61;1008;-88
2022/10/29 04:12:11;241779.00;0.81;417.81;0.00;0.00;0.62;;;;;17.10;8.20;;;;;;2280341;61;1989;-88
2022/10/29 04:14:38;450715.00;1.50;777.01;9970.00;0.03;17.90;;;;;17.00;8.50;;;;;;2280354;61;1020;-87
2022/10/29 04:17:05;188827.00;0.63;326.69;0.00;0.00;0.62;;;;;17.20;8.70;;;;;;2280391;61;1309;-89
2022/10/29 04:19:34;280363.00;0.93;484.16;0.00;0.00;0.62;;;;;17.10;8.30;;;;;;2280366;61;924;-88
2022/10/29 04:22:01;575694.00;1.92;992.27;98891.00;0.33;171.66;;;;;17.10;8.20;;;;;;2280258;61;1607;-87
2022/10/29 04:24:31;260550.00;0.87;450.09;16730.00;0.06;29.61;;;;;17.10;8.20;;;;;;2280367;61;908;-86
2022/10/29 04:26:58;455515.00;1.52;785.27;67920.00;0.23;118.17;;;;;17.20;7.90;;;;;;2280247;61;1723;-88
2022/10/29 04:29:25;283366.00;0.94;489.32;0.00;0.00;0.62;;;;;17.20;8.20;;;;;;2280334;61;986;-86
2022/10/29 04:31:52;233468.00;0.78;403.51;0.00;0.00;0.62;;;;;17.10;7.90;;;;;;2280274;61;1988;-87
2022/10/29 04:34:18;463297.00;1.54;798.66;88704.00;0.30;154.07;;;;;17.20;8.00;;;;;;2280266;61;1344;-87
2022/10/29 04:36:47;476276.00;1.59;820.99;36104.00;0.12;63.15;;;;;17.20;8.00;;;;;;2280240;61;2229;-87
2022/10/29 04:39:13;60111.00;0.20;104.67;0.00;0.00;0.62;;;;;17.30;6.90;;;;;;2286257;55;3724;-88
2022/10/29 04:44:13;548569.00;1.83;945.49;0.00;0.00;0.62;;;;;17.20;7.60;;;;;;2286447;61;1829;-88
2022/10/29 04:46:40;236168.00;0.79;408.16;42472.00;0.14;74.17;;;;;17.20;8.20;;;;;;2284301;61;2282;-88
2022/10/29 04:49:07;117095888.00;390.32;65035512.00;0.00;0.00;0.62;;;;;17.00;8.10;;;;;;2285083;61;933;-87
2022/10/29 04:51:34;303826.00;1.01;524.50;26627.00;0.09;46.74;;;;;17.10;8.00;;;;;;2284948;61;2002;-88
2022/10/29 04:56:34;1157085.00;3.86;2012.82;146195.00;0.49;253.25;;;;;17.10;7.70;;;;;;2285151;55;3723;-90
2022/10/29 04:59:01;784214.00;2.61;1353.61;93650.00;0.31;162.61;;;;;17.10;8.10;;;;;;2284769;60;1604;-88
2022/10/29 05:01:28;608710.00;2.03;1049.26;98052.00;0.33;170.21;;;;;17.10;8.20;;;;;;2284933;60;1054;-87
2022/10/29 05:06:24;636470.00;2.12;1097.23;87080.00;0.29;151.27;;;;;16.80;9.30;;;;;;2282417;61;1343;-87
2022/10/29 05:08:53;733184.00;2.44;1264.83;55175.00;0.18;96.13;;;;;16.70;9.40;;;;;;2299816;40;3596;-88
2022/10/29 05:11:22;393114.00;1.31;677.97;0.00;0.00;0.62;;;;;16.60;10.10;;;;;;2285055;60;1035;-89
2022/10/29 05:13:51;320870.00;1.07;553.79;4559.00;0.02;8.52;;;;;16.40;11.00;;;;;;2285013;60;1011;-89
2022/10/29 05:16:18;553976.00;1.85;954.81;85140.00;0.28;147.92;;;;;16.40;11.50;;;;;;2284958;60;1437;-89
2022/10/29 05:18:44;525837.00;1.75;906.32;16679.00;0.06;29.52;;;;;16.20;11.90;;;;;;2284995;60;998;-87
2022/10/29 05:21:15;469228.00;1.56;808.86;27952.00;0.09;49.04;;;;;16.20;11.60;;;;;;2285009;60;1069;-88
2022/10/29 05:23:42;404930.00;1.35;698.28;0.00;0.00;0.62;;;;;16.30;11.60;;;;;;2284991;60;1473;-88
2022/10/29 05:26:10;385027.00;1.28;664.07;0.00;0.00;0.62;;;;;16.30;12.40;;;;;;2284904;60;1335;-88
2022/10/29 05:28:37;355521.00;1.19;613.35;112150.00;0.37;194.54;;;;;16.30;11.80;;;;;;2285096;60;1089;-87
2022/10/29 05:31:08;404857.00;1.35;698.16;0.00;0.00;0.62;;;;;16.40;12.00;;;;;;2284898;60;920;-89
2022/10/29 05:36:05;1029137.00;3.43;1784.15;0.00;0.00;0.62;;;;;16.10;11.90;;;;;;2274358;61;1411;-89
2022/10/29 05:38:33;408661.00;1.36;704.69;16631.00;0.06;29.44;;;;;16.00;11.90;;;;;;2272672;61;1475;-88
2022/10/29 05:41:01;201569.00;0.67;348.62;36738.00;0.12;64.24;;;;;15.90;12.20;;;;;;2272543;61;1439;-89
2022/10/29 05:43:28;394167.00;1.31;679.78;0.00;0.00;0.62;;;;;15.90;12.00;;;;;;2272735;61;1028;-88
2022/10/29 05:45:55;470577.00;1.57;811.18;0.00;0.00;0.62;;;;;15.80;12.10;;;;;;2272536;61;2057;-90
2022/10/29 05:48:25;315025.00;1.05;543.75;0.00;0.00;0.62;;;;;15.80;12.40;;;;;;2272735;61;1020;-89
2022/10/29 05:53:33;0.00;0.00;0.62;0.00;0.00;0.62;;;;;16.00;11.70;;;;;;2272719;61;1947;-88
2022/10/29 05:58:31;988220.00;3.29;1711.62;106275.00;0.35;184.40;;;;;16.00;12.10;;;;;;2282225;60;1418;-88
2022/10/29 06:00:58;462669.00;1.54;797.58;143324.00;0.48;248.30;;;;;15.90;11.70;;;;;;2280712;60;1249;-90
2022/10/29 06:03:27;557376.00;1.86;960.68;82080.00;0.27;142.63;;;;;15.90;12.20;;;;;;2280651;60;1422;-90
2022/10/29 06:05:54;483812.00;1.61;833.96;71761.00;0.24;124.80;;;;;15.90;11.70;;;;;;2280704;60;1577;-88
2022/10/29 06:08:21;590047.00;1.97;1017.04;143592.00;0.48;248.76;;;;;15.80;12.00;;;;;;2280710;60;1600;-88
2022/10/29 06:10:50;601143.00;2.00;1036.19;72474.00;0.24;126.04;;;;;15.90;11.80;;;;;;2280804;60;979;-89
2022/10/29 06:13:19;1004463.00;3.35;1740.38;155308.00;0.52;268.95;;;;;15.70;11.40;;;;;;2280713;60;1919;-87
2022/10/29 06:15:49;527952.00;1.76;909.96;92075.00;0.31;159.89;;;;;15.80;11.80;;;;;;2280642;60;1468;-88
2022/10/29 06:18:16;907287.00;3.02;1568.92;231912.00;0.77;400.84;;;;;15.70;11.70;;;;;;2280631;60;1607;-87
2022/10/29 06:20:45;521774.00;1.74;899.32;89222.00;0.30;154.96;;;;;15.70;11.80;;;;;;2280580;60;1462;-88
2022/10/29 06:23:12;566959.00;1.89;977.20;143167.00;0.48;248.03;;;;;15.80;11.30;;;;;;2280521;60;1653;-88
2022/10/29 06:28:13;1475919.00;4.92;2597.89;129007.00;0.43;223.62;;;;;15.90;11.60;;;;;;2282752;61;1431;-90
2022/10/29 06:33:10;1421541.00;4.74;2496.34;116370.00;0.39;201.82;;;;;15.60;14.10;;;;;;2278039;61;1965;-90
2022/10/29 06:35:36;1079885.00;3.60;1874.49;206061.00;0.69;356.36;;;;;15.60;13.90;;;;;;2276683;61;1537;-88
2022/10/29 06:38:06;726192.00;2.42;1252.69;110634.00;0.37;191.92;;;;;15.70;14.00;;;;;;2276499;61;1625;-89
2022/10/29 06:40:33;473245.00;1.58;815.77;84652.00;0.28;147.07;;;;;15.80;13.50;;;;;;2276447;61;1516;-88
2022/10/29 06:43:01;667653.00;2.23;1151.19;87781.00;0.29;152.48;;;;;15.90;13.00;;;;;;2276602;61;1495;-88
2022/10/29 06:45:28;515435.00;1.72;888.40;75192.00;0.25;130.73;;;;;16.00;12.90;;;;;;2276504;61;1369;-88
2022/10/29 06:47:56;778479.00;2.59;1343.62;121531.00;0.41;210.72;;;;;16.10;12.60;;;;;;2276660;61;1038;-88
2022/10/29 06:50:24;652669.00;2.18;1125.25;82622.00;0.28;143.57;;;;;16.10;12.40;;;;;;2276558;61;1570;-88
2022/10/29 06:52:58;700774.00;2.34;1208.58;70030.00;0.23;121.81;;;;;16.20;12.70;;;;;;2276407;61;1922;-89
2022/10/29 06:55:28;116765.00;0.39;202.50;0.00;0.00;0.62;;;;;16.20;12.70;;;;;;2276388;61;1290;-88
2022/10/29 07:00:22;1298277.00;4.33;2268.95;0.00;0.00;0.62;;;;;16.50;12.00;;;;;;2291991;55;3684;-88
2022/10/29 07:02:53;417705.00;1.39;720.24;0.00;0.00;0.62;;;;;16.70;12.10;;;;;;2284623;60;1406;-87
2022/10/29 07:07:51;1184337.00;3.95;2061.93;0.00;0.00;0.62;;;;;17.00;11.50;;;;;;2282511;61;1253;-89
2022/10/29 07:10:18;612384.00;2.04;1055.61;0.00;0.00;0.62;;;;;17.10;10.70;;;;;;2280325;61;1556;-88
2022/10/29 07:12:47;521159.00;1.74;898.26;0.00;0.00;0.62;;;;;17.20;9.50;;;;;;2280505;61;1927;-88
2022/10/29 07:15:15;760634.00;2.54;1312.55;103502.00;0.35;179.62;;;;;17.30;9.10;;;;;;2280463;61;1439;-85
2022/10/29 07:17:43;333797.00;1.11;576.01;0.00;0.00;0.62;;;;;17.40;9.10;;;;;;2280436;61;2152;-88
2022/10/29 07:20:10;573986.00;1.91;989.32;57803.00;0.19;100.68;;;;;17.40;8.90;;;;;;2280462;61;1418;-88
2022/10/29 07:22:37;1039394.00;3.46;1802.37;136306.00;0.45;236.20;;;;;17.40;9.00;;;;;;2280512;61;995;-89
2022/10/29 07:27:35;1539707.00;5.13;2718.06;118782.00;0.40;205.98;;;;;17.40;9.80;;;;;;2282032;61;1386;-88
2022/10/29 07:35:06;1626100.00;5.42;2882.72;30894.00;0.10;54.13;;;;;17.70;8.30;;;;;;2281770;61;1258;-87
2022/10/29 07:37:33;121408.00;0.40;210.51;0.00;0.00;0.62;;;;;17.80;8.50;;;;;;2276325;61;1035;-88
2022/10/29 07:40:00;708368.00;2.36;1221.75;0.00;0.00;0.62;;;;;18.10;8.10;;;;;;2276408;61;1625;-88
2022/10/29 07:42:27;376268.00;1.25;649.01;0.00;0.00;0.62;;;;;18.40;7.70;;;;;;2276345;61;1655;-88
2022/10/29 07:44:54;633644.00;2.11;1092.35;106551.00;0.36;184.88;;;;;18.40;7.40;;;;;;2276299;61;996;-88
2022/10/29 07:47:21;756516.00;2.52;1305.39;62017.00;0.21;107.96;;;;;18.40;6.90;;;;;;2276265;61;1769;-88
2022/10/29 07:54:51;1090658.00;3.64;1893.73;7752.00;0.03;14.05;;;;;18.80;7.20;;;;;;2281773;61;1303;-88
2022/10/29 07:57:23;418245.00;1.39;721.17;0.00;0.00;0.62;;;;;18.80;6.90;;;;;;2285448;56;3836;-89
2022/10/29 07:59:53;240164.00;0.80;415.03;0.00;0.00;0.62;;;;;19.00;7.10;;;;;;2284466;60;1426;-89
2022/10/29 08:02:20;316930.00;1.06;547.02;0.00;0.00;0.62;;;;;19.20;5.60;;;;;;2284391;60;1645;-88
2022/10/29 08:10:58;100318.00;0.33;174.12;23676.00;0.08;41.64;;;;;19.60;5.90;;;;;;2282291;61;676;-87
2022/10/29 08:13:26;139243.00;0.46;241.27;0.00;0.00;0.62;;;;;19.60;6.50;;;;;;2280183;61;1989;-89
2022/10/29 08:15:53;158237.00;0.53;274.00;0.00;0.00;0.62;;;;;19.50;5.80;;;;;;2280311;61;1444;-87
2022/10/29 08:18:20;232207.00;0.77;401.35;0.00;0.00;0.62;;;;;19.70;5.90;;;;;;2280217;61;1482;-88
2022/10/29 08:20:47;414932.00;1.38;715.48;69942.00;0.23;121.66;;;;;19.80;5.70;;;;;;2280143;61;1432;-89
2022/10/29 08:25:45;2332582.00;7.78;4331.09;49117.00;0.16;85.66;;;;;20.20;5.40;;;;;;2281765;61;1390;-90
2022/10/29 08:33:19;968904.00;3.23;1677.47;0.00;0.00;0.62;;;;;20.90;4.40;;;;;;2277984;61;1891;-89
2022/10/29 08:35:47;398678.00;1.33;687.53;72816.00;0.24;126.63;;;;;21.10;4.60;;;;;;2276138;61;1643;-88
2022/10/29 08:41:02;1478429.00;4.93;2602.60;116858.00;0.39;202.66;;;;;21.30;3.90;;;;;;2282262;61;1431;-89
2022/10/29 08:43:58;855322.00;2.85;1477.78;163737.00;0.55;283.48;;;;;21.60;3.70;;;;;;2280284;61;1608;-89
2022/10/29 08:46:40;749704.00;2.50;1293.54;157421.00;0.52;272.60;;;;;21.60;3.80;;;;;;2280093;61;1662;-90
2022/10/29 08:49:17;394081.00;1.31;679.63;0.00;0.00;0.62;;;;;21.70;3.70;;;;;;2280322;61;1623;-87
2022/10/29 08:54:16;1368290.00;4.56;2397.64;71765.00;0.24;124.81;;;;;22.10;2.20;;;;;;2281947;61;1962;-90
2022/10/29 08:56:49;557643.00;1.86;961.14;71419.00;0.24;124.21;;;;;22.20;1.90;;;;;;2280104;61;1801;-89
2022/10/29 09:12:13;1382993.00;4.61;2424.82;67916.00;0.23;118.16;;;;;22.10;1.90;;;;;;2281957;61;1438;-88
2022/10/29 09:15:13;794309.00;2.65;1371.20;0.00;0.00;0.62;;;;;21.90;1.50;;;;;;2299405;56;3711;-89
2022/10/29 09:30:20;1157247.00;3.86;2013.11;61532.00;0.21;107.13;;;;;22.10;1.60;;;;;;2277440;61;1197;-89
2022/10/29 10:05:16;1454914.00;4.85;2558.57;25329.00;0.08;44.50;;;;;22.70;1.00;;;;;;2282603;61;1363;-90
2022/10/29 10:10:25;1127871.00;3.76;1960.34;34919.00;0.12;61.10;;;;;23.20;1.00;;;;;;2282196;61;1403;-88
2022/10/29 10:17:58;944004.00;3.15;1633.54;30205.00;0.10;52.94;;;;;23.30;1.00;;;;;;2282494;61;1295;-89
2022/10/29 10:20:34;479938.00;1.60;827.29;35882.00;0.12;62.76;;;;;23.80;1.00;;;;;;2280562;61;995;-88
2022/10/29 10:23:24;491932.00;1.64;847.93;69406.00;0.23;120.73;;;;;24.10;1.00;;;;;;2280505;61;1559;-87
2022/10/29 10:25:52;230576.00;0.77;398.54;1768.00;0.01;3.68;;;;;23.90;1.00;;;;;;2280599;61;1335;-89
2022/10/29 10:28:23;409780.00;1.37;706.62;94946.00;0.32;164.85;;;;;23.90;1.00;;;;;;2280677;61;2242;-89
2022/10/29 10:31:11;121120880.00;403.74;71981768.00;0.00;0.00;0.62;;;;;23.90;1.00;;;;;;2280649;61;1044;-88
2022/10/29 10:33:49;478467.00;1.59;824.76;0.00;0.00;0.62;;;;;24.10;1.00;;;;;;2280433;61;1998;-87
2022/10/29 10:36:22;458249.00;1.53;789.97;0.00;0.00;0.62;;;;;24.40;1.00;;;;;;2280486;61;1738;-86
2022/10/29 10:38:51;218832.00;0.73;378.33;0.00;0.00;0.62;;;;;24.50;1.00;;;;;;2280675;61;1606;-87
2022/10/29 10:41:24;263137.00;0.88;454.54;0.00;0.00;0.62;;;;;24.60;1.00;;;;;;2280599;61;1128;-88
2022/10/29 10:43:52;293186.00;0.98;506.21;0.00;0.00;0.62;;;;;24.70;1.00;;;;;;2280241;61;1619;-86
2022/10/29 10:46:24;452353.00;1.51;779.83;11491.00;0.04;20.53;;;;;24.60;1.00;;;;;;2280470;61;1349;-89
2022/10/29 10:49:05;395587.00;1.32;682.22;8839.00;0.03;15.94;;;;;24.70;1.00;;;;;;2280449;61;1427;-88
2022/10/29 10:54:26;1017696.00;3.39;1763.84;66048.00;0.22;114.93;;;;;24.90;1.00;;;;;;2282063;61;1963;-88
2022/10/29 10:59:29;1146813.00;3.82;1994.35;0.00;0.00;0.62;;;;;25.00;1.00;;;;;;2282083;61;1217;-88
2022/10/29 11:02:01;472932.00;1.58;815.23;24056.00;0.08;42.29;;;;;25.10;1.00;;;;;;2286306;55;3756;-87
2022/10/29 11:04:35;71282.00;0.24;123.98;0.00;0.00;0.62;;;;;25.20;1.00;;;;;;2284716;60;1108;-87
2022/10/29 11:07:08;438783.00;1.46;756.49;0.00;0.00;0.62;;;;;25.30;1.00;;;;;;2284563;60;1762;-88
2022/10/29 11:19:36;954760.00;3.18;1652.51;50207.00;0.17;87.54;;;;;25.70;1.00;;;;;;2282512;61;1389;-86
2022/10/29 11:24:43;978471.00;3.26;1694.38;0.00;0.00;0.62;;;;;26.00;1.00;;;;;;2282402;61;1439;-88
2022/10/29 11:32:19;742249.00;2.47;1280.58;0.00;0.00;0.62;;;;;26.20;1.00;;;;;;2282253;61;1405;-89
2022/10/29 11:39:53;1228910.00;4.10;2142.58;12161.00;0.04;21.69;;;;;26.30;1.00;;;;;;2282398;61;1426;-87
2022/10/29 11:42:20;290860.00;0.97;502.21;0.00;0.00;0.62;;;;;26.20;1.00;;;;;;2280372;61;1600;-88
2022/10/29 11:44:49;233929.00;0.78;404.31;0.00;0.00;0.62;;;;;26.20;1.00;;;;;;2280429;61;1450;-89
2022/10/29 11:47:37;880889.00;2.94;1522.58;159895.00;0.53;276.86;;;;;26.50;1.00;;;;;;2280286;61;1555;-88
2022/10/29 11:50:21;185965.00;0.62;321.76;0.00;0.00;0.62;;;;;26.50;1.00;;;;;;2288770;55;3766;-89
2022/10/29 11:52:58;407557.00;1.36;702.80;0.00;0.00;0.62;;;;;26.70;1.00;;;;;;2284459;60;1639;-89
2022/10/29 11:55:38;465361.00;1.55;802.21;31635.00;0.11;55.41;;;;;26.90;1.00;;;;;;2284318;60;1734;-90
2022/10/29 11:58:16;242520.00;0.81;419.09;0.00;0.00;0.62;;;;;26.90;1.00;;;;;;2284608;60;1003;-88
2022/10/29 12:00:55;149651.00;0.50;259.21;0.00;0.00;0.62;;;;;26.90;1.00;;;;;;2284426;60;993;-88
2022/10/29 12:03:43;529945.00;1.77;913.40;169608.00;0.57;293.59;;;;;26.70;1.00;;;;;;2284538;60;1647;-88
2022/10/29 12:06:19;486465.00;1.62;838.52;74949.00;0.25;130.31;;;;;26.70;1.00;;;;;;2284533;60;1538;-88
2022/10/29 12:09:02;563607.00;1.88;971.42;68842.00;0.23;119.76;;;;;26.70;1.00;;;;;;2284421;60;1601;-89
2022/10/29 12:11:41;960211.00;3.20;1662.13;218675.00;0.73;378.06;;;;;26.20;1.00;;;;;;2284545;60;926;-88
2022/10/29 12:14:25;325414.00;1.08;561.60;8411.00;0.03;15.20;;;;;25.90;1.00;;;;;;2284471;60;1985;-89
2022/10/29 12:17:04;458894.00;1.53;791.08;76281.00;0.25;132.61;;;;;25.90;1.00;;;;;;2284484;60;1483;-89
2022/10/29 12:19:46;675581.00;2.25;1164.92;62988.00;0.21;109.64;;;;;26.30;1.00;;;;;;2284395;60;1319;-89
2022/10/29 12:22:37;401941.00;1.34;693.14;76594.00;0.26;133.15;;;;;26.30;1.00;;;;;;2284356;60;1006;-90
2022/10/29 12:25:21;695759.00;2.32;1199.89;131501.00;0.44;227.92;;;;;26.60;1.00;;;;;;2284394;60;1327;-89
2022/10/29 12:30:24;907646.00;3.03;1569.55;65048.00;0.22;113.20;;;;;26.20;1.00;;;;;;2277852;61;1386;-88
2022/10/29 12:32:59;541077.00;1.80;932.58;81329.00;0.27;141.33;;;;;26.50;1.00;;;;;;2276267;61;1609;-86
2022/10/29 12:35:32;312480.00;1.04;539.37;93815.00;0.31;162.89;;;;;26.60;1.00;;;;;;2276159;61;2008;-87